sensor_id;sensor_type;location;lat;lon;timestamp;temperature;humidity
44277;DHT22;29973;43.742;1.236;2022-12-18T00:01:04;4.60;99.90
44277;DHT22;29973;43.742;1.236;2022-12-18T00:03:32;4.60;99.90
44277;DHT22;29973;43.742;1.236;2022-12-18T00:05:58;4.60;99.90
44277;DHT22;29973;43.742;1.236;2022-12-18T00:08:23;4.60;99.90
44277;DHT22;29973;43.742;1.236;2022-12-18T00:10:49;4.60;99.90
44277;DHT22;29973;43.742;1.236;2022-12-18T00:13:14;4.70;99.90
44277;DHT22;29973;43.742;1.236;2022-12-18T00:15:40;4.70;99.90
44277;DHT22;29973;43.742;1.236;2022-12-18T00:18:06;4.70;99.90
44277;DHT22;29973;43.742;1.236;2022-12-18T00:20:35;4.70;99.90
44277;DHT22;29973;43.742;1.236;2022-12-18T00:23:00;4.70;99.90
44277;DHT22;29973;43.742;1.236;2022-12-18T00:25:26;4.70;99.90
44277;DHT22;29973;43.742;1.236;2022-12-18T00:27:52;4.80;99.90
44277;DHT22;29973;43.742;1.236;2022-12-18T00:30:17;4.80;99.90
44277;DHT22;29973;43.742;1.236;2022-12-18T00:32:43;4.80;99.90
44277;DHT22;29973;43.742;1.236;2022-12-18T00:35:09;4.80;99.90
44277;DHT22;29973;43.742;1.236;2022-12-18T00:37:34;4.80;99.90
44277;DHT22;29973;43.742;1.236;2022-12-18T00:40:00;4.90;99.90
44277;DHT22;29973;43.742;1.236;2022-12-18T00:42:26;4.90;99.90
44277;DHT22;29973;43.742;1.236;2022-12-18T00:45:10;5.00;99.90
44277;DHT22;29973;43.742;1.236;2022-12-18T00:47:35;5.00;99.90
44277;DHT22;29973;43.742;1.236;2022-12-18T00:50:01;5.00;99.90
44277;DHT22;29973;43.742;1.236;2022-12-18T00:52:27;5.10;99.90
44277;DHT22;29973;43.742;1.236;2022-12-18T00:54:52;5.10;99.90
44277;DHT22;29973;43.742;1.236;2022-12-18T00:57:18;5.20;99.90
44277;DHT22;29973;43.742;1.236;2022-12-18T00:59:44;5.20;99.90
44277;DHT22;29973;43.742;1.236;2022-12-18T01:02:10;5.20;99.90
44277;DHT22;29973;43.742;1.236;2022-12-18T01:04:35;5.20;99.90
44277;DHT22;29973;43.742;1.236;2022-12-18T01:07:01;5.20;99.90
44277;DHT22;29973;43.742;1.236;2022-12-18T01:09:27;5.20;99.90
44277;DHT22;29973;43.742;1.236;2022-12-18T01:11:53;5.30;99.90
44277;DHT22;29973;43.742;1.236;2022-12-18T01:14:18;5.30;99.90
44277;DHT22;29973;43.742;1.236;2022-12-18T01:16:44;5.40;99.90
44277;DHT22;29973;43.742;1.236;2022-12-18T01:19:10;5.50;99.90
44277;DHT22;29973;43.742;1.236;2022-12-18T01:21:35;5.50;99.90
44277;DHT22;29973;43.742;1.236;2022-12-18T01:24:01;5.60;99.90
44277;DHT22;29973;43.742;1.236;2022-12-18T01:26:26;5.60;99.90
44277;DHT22;29973;43.742;1.236;2022-12-18T01:28:55;5.70;99.90
44277;DHT22;29973;43.742;1.236;2022-12-18T01:31:23;5.70;99.90
44277;DHT22;29973;43.742;1.236;2022-12-18T01:33:49;5.70;99.90
44277;DHT22;29973;43.742;1.236;2022-12-18T01:36:16;5.70;99.90
44277;DHT22;29973;43.742;1.236;2022-12-18T01:38:42;5.70;99.90
44277;DHT22;29973;43.742;1.236;2022-12-18T01:41:08;5.70;99.90
44277;DHT22;29973;43.742;1.236;2022-12-18T01:43:48;5.70;99.90
44277;DHT22;29973;43.742;1.236;2022-12-18T01:46:14;5.70;99.90
44277;DHT22;29973;43.742;1.236;2022-12-18T01:48:40;5.70;99.90
44277;DHT22;29973;43.742;1.236;2022-12-18T01:51:06;5.70;99.90
44277;DHT22;29973;43.742;1.236;2022-12-18T01:53:33;5.70;99.90
44277;DHT22;29973;43.742;1.236;2022-12-18T01:55:59;5.80;99.90
44277;DHT22;29973;43.742;1.236;2022-12-18T01:59:07;5.80;99.90
44277;DHT22;29973;43.742;1.236;2022-12-18T02:01:13;5.80;99.90
44277;DHT22;29973;43.742;1.236;2022-12-18T02:03:43;5.70;99.90
44277;DHT22;29973;43.742;1.236;2022-12-18T02:06:16;5.80;99.90
44277;DHT22;29973;43.742;1.236;2022-12-18T02:08:58;5.80;99.90
44277;DHT22;29973;43.742;1.236;2022-12-18T02:11:32;5.80;99.90
44277;DHT22;29973;43.742;1.236;2022-12-18T02:14:16;5.70;99.90
44277;DHT22;29973;43.742;1.236;2022-12-18T02:16:54;5.60;99.90
44277;DHT22;29973;43.742;1.236;2022-12-18T02:21:54;5.50;99.90
44277;DHT22;29973;43.742;1.236;2022-12-18T02:24:32;5.40;99.90
44277;DHT22;29973;43.742;1.236;2022-12-18T02:27:04;5.40;99.90
44277;DHT22;29973;43.742;1.236;2022-12-18T02:29:33;5.30;99.90
44277;DHT22;29973;43.742;1.236;2022-12-18T02:32:00;5.20;99.90
44277;DHT22;29973;43.742;1.236;2022-12-18T02:34:29;5.10;99.90
44277;DHT22;29973;43.742;1.236;2022-12-18T02:36:55;5.10;99.90
44277;DHT22;29973;43.742;1.236;2022-12-18T02:39:21;4.90;99.90
44277;DHT22;29973;43.742;1.236;2022-12-18T02:41:49;4.80;99.90
44277;DHT22;29973;43.742;1.236;2022-12-18T02:44:14;4.80;99.90
44277;DHT22;29973;43.742;1.236;2022-12-18T02:46:44;4.60;99.90
44277;DHT22;29973;43.742;1.236;2022-12-18T02:52:10;4.40;99.90
44277;DHT22;29973;43.742;1.236;2022-12-18T02:57:15;4.30;99.90
44277;DHT22;29973;43.742;1.236;2022-12-18T02:59:46;4.20;99.90
44277;DHT22;29973;43.742;1.236;2022-12-18T03:02:26;4.00;99.90
44277;DHT22;29973;43.742;1.236;2022-12-18T03:05:02;4.00;99.90
44277;DHT22;29973;43.742;1.236;2022-12-18T03:10:21;3.90;99.90
44277;DHT22;29973;43.742;1.236;2022-12-18T03:12:52;3.80;99.90
44277;DHT22;29973;43.742;1.236;2022-12-18T03:15:22;3.70;99.90
44277;DHT22;29973;43.742;1.236;2022-12-18T03:17:52;3.80;99.90
44277;DHT22;29973;43.742;1.236;2022-12-18T03:20:18;3.80;99.90
44277;DHT22;29973;43.742;1.236;2022-12-18T03:22:46;3.80;99.90
44277;DHT22;29973;43.742;1.236;2022-12-18T03:25:13;3.90;99.90
44277;DHT22;29973;43.742;1.236;2022-12-18T03:27:40;3.90;99.90
44277;DHT22;29973;43.742;1.236;2022-12-18T03:30:08;3.90;99.90
44277;DHT22;29973;43.742;1.236;2022-12-18T03:32:42;3.90;99.90
44277;DHT22;29973;43.742;1.236;2022-12-18T03:35:08;3.90;99.90
44277;DHT22;29973;43.742;1.236;2022-12-18T03:37:34;3.80;99.90
44277;DHT22;29973;43.742;1.236;2022-12-18T03:40:00;3.70;99.90
44277;DHT22;29973;43.742;1.236;2022-12-18T03:42:28;3.80;99.90
44277;DHT22;29973;43.742;1.236;2022-12-18T03:45:12;3.70;99.90
44277;DHT22;29973;43.742;1.236;2022-12-18T03:55:28;3.60;99.90
44277;DHT22;29973;43.742;1.236;2022-12-18T03:57:56;3.60;99.90
44277;DHT22;29973;43.742;1.236;2022-12-18T04:00:22;3.60;99.90
44277;DHT22;29973;43.742;1.236;2022-12-18T04:02:51;3.50;99.90
44277;DHT22;29973;43.742;1.236;2022-12-18T04:05:18;3.50;99.90
44277;DHT22;29973;43.742;1.236;2022-12-18T04:07:45;3.50;99.90
44277;DHT22;29973;43.742;1.236;2022-12-18T04:10:12;3.50;99.90
44277;DHT22;29973;43.742;1.236;2022-12-18T04:12:39;3.50;99.90
44277;DHT22;29973;43.742;1.236;2022-12-18T04:15:05;3.40;99.90
44277;DHT22;29973;43.742;1.236;2022-12-18T04:17:30;3.50;99.90
44277;DHT22;29973;43.742;1.236;2022-12-18T04:19:56;3.50;99.90
44277;DHT22;29973;43.742;1.236;2022-12-18T04:22:22;3.50;99.90
44277;DHT22;29973;43.742;1.236;2022-12-18T04:24:47;3.50;99.90
44277;DHT22;29973;43.742;1.236;2022-12-18T04:27:13;3.50;99.90
44277;DHT22;29973;43.742;1.236;2022-12-18T04:29:39;3.50;99.90
44277;DHT22;29973;43.742;1.236;2022-12-18T04:32:04;3.50;99.90
44277;DHT22;29973;43.742;1.236;2022-12-18T04:34:30;3.50;99.90
44277;DHT22;29973;43.742;1.236;2022-12-18T04:36:56;3.50;99.90
44277;DHT22;29973;43.742;1.236;2022-12-18T04:39:21;3.50;99.90
44277;DHT22;29973;43.742;1.236;2022-12-18T04:41:47;3.50;99.90
44277;DHT22;29973;43.742;1.236;2022-12-18T04:44:13;3.50;99.90
44277;DHT22;29973;43.742;1.236;2022-12-18T04:46:39;3.50;99.90
44277;DHT22;29973;43.742;1.236;2022-12-18T04:49:04;3.60;99.90
44277;DHT22;29973;43.742;1.236;2022-12-18T04:51:30;3.50;99.90
44277;DHT22;29973;43.742;1.236;2022-12-18T04:53:56;3.50;99.90
44277;DHT22;29973;43.742;1.236;2022-12-18T04:56:21;3.50;99.90
44277;DHT22;29973;43.742;1.236;2022-12-18T04:58:47;3.40;99.90
44277;DHT22;29973;43.742;1.236;2022-12-18T05:01:13;3.50;99.90
44277;DHT22;29973;43.742;1.236;2022-12-18T05:03:39;3.50;99.90
44277;DHT22;29973;43.742;1.236;2022-12-18T05:06:05;3.40;99.90
44277;DHT22;29973;43.742;1.236;2022-12-18T05:08:31;3.30;99.90
44277;DHT22;29973;43.742;1.236;2022-12-18T05:11:10;3.30;99.90
44277;DHT22;29973;43.742;1.236;2022-12-18T05:13:36;3.30;99.90
44277;DHT22;29973;43.742;1.236;2022-12-18T05:16:03;3.00;99.90
44277;DHT22;29973;43.742;1.236;2022-12-18T05:18:30;2.90;99.90
44277;DHT22;29973;43.742;1.236;2022-12-18T05:20:56;2.60;99.90
44277;DHT22;29973;43.742;1.236;2022-12-18T05:23:22;2.50;99.90
44277;DHT22;29973;43.742;1.236;2022-12-18T05:25:52;2.30;99.90
44277;DHT22;29973;43.742;1.236;2022-12-18T05:28:18;2.20;99.90
44277;DHT22;29973;43.742;1.236;2022-12-18T05:30:47;2.00;99.90
44277;DHT22;29973;43.742;1.236;2022-12-18T05:33:13;1.90;99.90
44277;DHT22;29973;43.742;1.236;2022-12-18T05:35:39;1.80;99.90
44277;DHT22;29973;43.742;1.236;2022-12-18T05:38:04;1.70;99.90
44277;DHT22;29973;43.742;1.236;2022-12-18T05:40:30;1.70;99.90
44277;DHT22;29973;43.742;1.236;2022-12-18T05:42:56;1.60;99.90
44277;DHT22;29973;43.742;1.236;2022-12-18T05:45:21;1.60;99.90
44277;DHT22;29973;43.742;1.236;2022-12-18T05:47:47;1.60;99.90
44277;DHT22;29973;43.742;1.236;2022-12-18T05:50:12;1.50;99.90
44277;DHT22;29973;43.742;1.236;2022-12-18T05:52:38;1.40;99.90
44277;DHT22;29973;43.742;1.236;2022-12-18T05:55:04;1.40;99.90
44277;DHT22;29973;43.742;1.236;2022-12-18T05:57:30;1.40;99.90
44277;DHT22;29973;43.742;1.236;2022-12-18T05:59:55;1.40;99.90
44277;DHT22;29973;43.742;1.236;2022-12-18T06:02:21;1.40;99.90
44277;DHT22;29973;43.742;1.236;2022-12-18T06:04:47;1.30;99.90
44277;DHT22;29973;43.742;1.236;2022-12-18T06:07:12;1.20;99.90
44277;DHT22;29973;43.742;1.236;2022-12-18T06:09:38;1.20;99.90
44277;DHT22;29973;43.742;1.236;2022-12-18T06:12:04;1.30;99.90
44277;DHT22;29973;43.742;1.236;2022-12-18T06:14:29;1.20;99.90
44277;DHT22;29973;43.742;1.236;2022-12-18T06:16:55;1.10;99.90
44277;DHT22;29973;43.742;1.236;2022-12-18T06:19:21;1.00;99.90
44277;DHT22;29973;43.742;1.236;2022-12-18T06:21:46;1.00;99.90
44277;DHT22;29973;43.742;1.236;2022-12-18T06:24:12;0.90;99.90
44277;DHT22;29973;43.742;1.236;2022-12-18T06:26:38;0.70;99.90
44277;DHT22;29973;43.742;1.236;2022-12-18T06:29:04;0.60;99.90
44277;DHT22;29973;43.742;1.236;2022-12-18T06:31:30;0.60;99.90
44277;DHT22;29973;43.742;1.236;2022-12-18T06:33:55;0.60;99.90
44277;DHT22;29973;43.742;1.236;2022-12-18T06:36:21;0.70;99.90
44277;DHT22;29973;43.742;1.236;2022-12-18T06:38:46;0.70;99.90
44277;DHT22;29973;43.742;1.236;2022-12-18T06:41:13;0.70;99.90
44277;DHT22;29973;43.742;1.236;2022-12-18T06:43:39;0.70;99.90
44277;DHT22;29973;43.742;1.236;2022-12-18T06:46:05;0.60;99.90
44277;DHT22;29973;43.742;1.236;2022-12-18T06:48:31;0.60;99.90
44277;DHT22;29973;43.742;1.236;2022-12-18T06:50:57;0.60;99.90
44277;DHT22;29973;43.742;1.236;2022-12-18T06:53:22;0.50;99.90
44277;DHT22;29973;43.742;1.236;2022-12-18T06:55:49;0.50;99.90
44277;DHT22;29973;43.742;1.236;2022-12-18T06:58:15;0.50;99.90
44277;DHT22;29973;43.742;1.236;2022-12-18T07:00:40;0.50;99.90
44277;DHT22;29973;43.742;1.236;2022-12-18T07:03:06;0.40;99.90
44277;DHT22;29973;43.742;1.236;2022-12-18T07:05:32;0.40;99.90
44277;DHT22;29973;43.742;1.236;2022-12-18T07:07:58;0.40;99.90
44277;DHT22;29973;43.742;1.236;2022-12-18T07:10:23;0.50;99.90
44277;DHT22;29973;43.742;1.236;2022-12-18T07:12:49;0.50;99.90
44277;DHT22;29973;43.742;1.236;2022-12-18T07:15:15;0.50;99.90
44277;DHT22;29973;43.742;1.236;2022-12-18T07:17:40;0.50;99.90
44277;DHT22;29973;43.742;1.236;2022-12-18T07:20:06;0.50;99.90
44277;DHT22;29973;43.742;1.236;2022-12-18T07:22:32;0.40;99.90
44277;DHT22;29973;43.742;1.236;2022-12-18T07:24:57;0.30;99.90
44277;DHT22;29973;43.742;1.236;2022-12-18T07:27:23;0.30;99.90
44277;DHT22;29973;43.742;1.236;2022-12-18T07:29:48;0.30;99.90
44277;DHT22;29973;43.742;1.236;2022-12-18T07:32:14;0.40;99.90
44277;DHT22;29973;43.742;1.236;2022-12-18T07:34:39;0.40;99.90
44277;DHT22;29973;43.742;1.236;2022-12-18T07:37:05;0.40;99.90
44277;DHT22;29973;43.742;1.236;2022-12-18T07:39:31;0.40;99.90
44277;DHT22;29973;43.742;1.236;2022-12-18T07:41:56;0.50;99.90
44277;DHT22;29973;43.742;1.236;2022-12-18T07:44:41;0.50;99.90
44277;DHT22;29973;43.742;1.236;2022-12-18T07:47:06;0.50;99.90
44277;DHT22;29973;43.742;1.236;2022-12-18T07:49:32;0.70;99.90
44277;DHT22;29973;43.742;1.236;2022-12-18T07:51:57;0.70;99.90
44277;DHT22;29973;43.742;1.236;2022-12-18T07:54:24;0.70;99.90
44277;DHT22;29973;43.742;1.236;2022-12-18T07:56:50;0.70;99.90
44277;DHT22;29973;43.742;1.236;2022-12-18T07:59:15;0.70;99.90
44277;DHT22;29973;43.742;1.236;2022-12-18T08:01:41;0.80;99.90
44277;DHT22;29973;43.742;1.236;2022-12-18T08:04:07;0.70;99.90
44277;DHT22;29973;43.742;1.236;2022-12-18T08:06:32;0.80;99.90
44277;DHT22;29973;43.742;1.236;2022-12-18T08:08:58;1.00;99.90
44277;DHT22;29973;43.742;1.236;2022-12-18T08:11:25;1.10;99.90
44277;DHT22;29973;43.742;1.236;2022-12-18T08:13:50;1.20;99.90
44277;DHT22;29973;43.742;1.236;2022-12-18T08:16:16;1.30;99.90
44277;DHT22;29973;43.742;1.236;2022-12-18T08:18:42;1.40;99.90
44277;DHT22;29973;43.742;1.236;2022-12-18T08:21:11;1.40;99.90
44277;DHT22;29973;43.742;1.236;2022-12-18T08:23:37;1.50;99.90
44277;DHT22;29973;43.742;1.236;2022-12-18T08:26:03;1.60;99.90
44277;DHT22;29973;43.742;1.236;2022-12-18T08:28:29;1.80;99.90
44277;DHT22;29973;43.742;1.236;2022-12-18T08:30:54;1.90;99.90
44277;DHT22;29973;43.742;1.236;2022-12-18T08:33:20;1.90;99.90
44277;DHT22;29973;43.742;1.236;2022-12-18T08:35:45;1.90;99.90
44277;DHT22;29973;43.742;1.236;2022-12-18T08:38:11;2.10;99.90
44277;DHT22;29973;43.742;1.236;2022-12-18T08:40:37;2.30;99.90
44277;DHT22;29973;43.742;1.236;2022-12-18T08:43:02;2.50;99.90
44277;DHT22;29973;43.742;1.236;2022-12-18T08:45:46;2.80;99.90
44277;DHT22;29973;43.742;1.236;2022-12-18T08:48:12;3.00;99.90
44277;DHT22;29973;43.742;1.236;2022-12-18T08:50:37;3.20;99.90
44277;DHT22;29973;43.742;1.236;2022-12-18T08:53:03;3.30;99.90
44277;DHT22;29973;43.742;1.236;2022-12-18T08:55:29;3.50;99.90
44277;DHT22;29973;43.742;1.236;2022-12-18T08:57:54;4.10;99.90
44277;DHT22;29973;43.742;1.236;2022-12-18T09:00:20;5.70;99.90
44277;DHT22;29973;43.742;1.236;2022-12-18T09:02:45;7.10;99.90
44277;DHT22;29973;43.742;1.236;2022-12-18T09:05:11;8.10;99.90
44277;DHT22;29973;43.742;1.236;2022-12-18T09:07:37;8.20;99.90
44277;DHT22;29973;43.742;1.236;2022-12-18T09:10:02;8.10;99.90
44277;DHT22;29973;43.742;1.236;2022-12-18T09:12:28;8.70;99.90
44277;DHT22;29973;43.742;1.236;2022-12-18T09:14:54;9.20;99.90
44277;DHT22;29973;43.742;1.236;2022-12-18T09:17:21;9.50;99.90
44277;DHT22;29973;43.742;1.236;2022-12-18T09:19:47;9.30;99.90
44277;DHT22;29973;43.742;1.236;2022-12-18T09:22:12;8.50;99.90
44277;DHT22;29973;43.742;1.236;2022-12-18T09:24:38;9.00;99.90
44277;DHT22;29973;43.742;1.236;2022-12-18T09:27:03;9.60;99.90
44277;DHT22;29973;43.742;1.236;2022-12-18T09:29:29;10.80;99.90
44277;DHT22;29973;43.742;1.236;2022-12-18T09:31:54;11.20;99.90
44277;DHT22;29973;43.742;1.236;2022-12-18T09:34:20;11.90;99.90
44277;DHT22;29973;43.742;1.236;2022-12-18T09:36:48;11.30;99.90
44277;DHT22;29973;43.742;1.236;2022-12-18T09:39:14;10.90;99.90
44277;DHT22;29973;43.742;1.236;2022-12-18T09:46:36;11.30;99.90
44277;DHT22;29973;43.742;1.236;2022-12-18T09:49:03;11.50;99.90
44277;DHT22;29973;43.742;1.236;2022-12-18T09:51:33;12.10;99.90
44277;DHT22;29973;43.742;1.236;2022-12-18T09:54:04;11.80;99.90
44277;DHT22;29973;43.742;1.236;2022-12-18T09:56:31;11.50;99.90
44277;DHT22;29973;43.742;1.236;2022-12-18T09:59:00;12.20;99.90
44277;DHT22;29973;43.742;1.236;2022-12-18T10:01:26;12.80;99.90
44277;DHT22;29973;43.742;1.236;2022-12-18T10:03:52;13.30;99.90
44277;DHT22;29973;43.742;1.236;2022-12-18T10:13:58;13.90;99.90
44277;DHT22;29973;43.742;1.236;2022-12-18T10:27:10;13.80;99.90
44277;DHT22;29973;43.742;1.236;2022-12-18T10:29:37;14.30;99.90
44277;DHT22;29973;43.742;1.236;2022-12-18T10:32:03;14.20;99.90
44277;DHT22;29973;43.742;1.236;2022-12-18T10:34:28;14.60;99.90
44277;DHT22;29973;43.742;1.236;2022-12-18T10:36:54;15.00;99.10
44277;DHT22;29973;43.742;1.236;2022-12-18T10:39:21;14.90;99.20
44277;DHT22;29973;43.742;1.236;2022-12-18T10:41:47;15.00;98.90
44277;DHT22;29973;43.742;1.236;2022-12-18T10:44:20;15.00;98.50
44277;DHT22;29973;43.742;1.236;2022-12-18T10:46:47;14.30;99.80
44277;DHT22;29973;43.742;1.236;2022-12-18T10:49:26;13.80;99.90
44277;DHT22;29973;43.742;1.236;2022-12-18T10:52:04;13.80;99.90
44277;DHT22;29973;43.742;1.236;2022-12-18T10:54:30;14.60;98.90
44277;DHT22;29973;43.742;1.236;2022-12-18T10:57:13;13.50;99.90
44277;DHT22;29973;43.742;1.236;2022-12-18T10:59:49;13.70;99.90
44277;DHT22;29973;43.742;1.236;2022-12-18T11:02:34;13.70;99.90
44277;DHT22;29973;43.742;1.236;2022-12-18T11:05:00;14.10;99.90
44277;DHT22;29973;43.742;1.236;2022-12-18T11:07:29;13.50;99.90
44277;DHT22;29973;43.742;1.236;2022-12-18T11:10:15;14.20;99.90
44277;DHT22;29973;43.742;1.236;2022-12-18T11:12:40;13.90;99.90
44277;DHT22;29973;43.742;1.236;2022-12-18T11:15:13;14.10;99.90
44277;DHT22;29973;43.742;1.236;2022-12-18T11:17:40;14.10;99.90
44277;DHT22;29973;43.742;1.236;2022-12-18T11:20:23;14.20;99.90
44277;DHT22;29973;43.742;1.236;2022-12-18T11:22:59;14.80;99.90
44277;DHT22;29973;43.742;1.236;2022-12-18T11:25:25;14.50;99.90
44277;DHT22;29973;43.742;1.236;2022-12-18T11:27:52;14.30;99.90
44277;DHT22;29973;43.742;1.236;2022-12-18T11:30:31;14.80;99.90
44277;DHT22;29973;43.742;1.236;2022-12-18T11:33:10;15.50;99.90
44277;DHT22;29973;43.742;1.236;2022-12-18T11:38:04;14.90;99.90
44277;DHT22;29973;43.742;1.236;2022-12-18T11:40:35;15.50;99.90
44277;DHT22;29973;43.742;1.236;2022-12-18T11:43:10;15.80;99.90
44277;DHT22;29973;43.742;1.236;2022-12-18T11:45:43;16.50;99.90
44277;DHT22;29973;43.742;1.236;2022-12-18T11:53:16;15.70;99.70
44277;DHT22;29973;43.742;1.236;2022-12-18T11:58:17;15.70;99.90
44277;DHT22;29973;43.742;1.236;2022-12-18T12:00:49;16.10;99.90
44277;DHT22;29973;43.742;1.236;2022-12-18T12:03:22;15.40;99.90
44277;DHT22;29973;43.742;1.236;2022-12-18T12:18:46;15.20;99.80
44277;DHT22;29973;43.742;1.236;2022-12-18T12:21:26;15.10;99.90
44277;DHT22;29973;43.742;1.236;2022-12-18T12:23:57;15.80;99.00
44277;DHT22;29973;43.742;1.236;2022-12-18T12:26:27;16.00;99.00
44277;DHT22;29973;43.742;1.236;2022-12-18T12:29:05;15.20;99.70
44277;DHT22;29973;43.742;1.236;2022-12-18T12:34:08;16.10;98.10
44277;DHT22;29973;43.742;1.236;2022-12-18T12:39:10;15.80;99.00
44277;DHT22;29973;43.742;1.236;2022-12-18T12:41:37;16.00;99.90
44277;DHT22;29973;43.742;1.236;2022-12-18T12:44:44;16.70;96.70
44277;DHT22;29973;43.742;1.236;2022-12-18T12:47:14;15.60;99.90
44277;DHT22;29973;43.742;1.236;2022-12-18T12:49:40;16.20;97.20
44277;DHT22;29973;43.742;1.236;2022-12-18T12:52:12;16.90;97.50
44277;DHT22;29973;43.742;1.236;2022-12-18T12:54:39;18.20;94.80
44277;DHT22;29973;43.742;1.236;2022-12-18T13:08:26;16.50;98.00
44277;DHT22;29973;43.742;1.236;2022-12-18T13:10:30;16.20;98.30
44277;DHT22;29973;43.742;1.236;2022-12-18T13:15:31;16.30;97.90
44277;DHT22;29973;43.742;1.236;2022-12-18T13:18:05;16.20;98.70
44277;DHT22;29973;43.742;1.236;2022-12-18T13:20:35;16.50;98.70
44277;DHT22;29973;43.742;1.236;2022-12-18T13:23:01;16.40;99.10
44277;DHT22;29973;43.742;1.236;2022-12-18T13:25:44;16.10;98.40
44277;DHT22;29973;43.742;1.236;2022-12-18T13:28:11;16.20;99.30
44277;DHT22;29973;43.742;1.236;2022-12-18T13:30:42;16.10;99.50
44277;DHT22;29973;43.742;1.236;2022-12-18T13:35:41;14.90;99.90
44277;DHT22;29973;43.742;1.236;2022-12-18T13:40:55;16.30;99.90
44277;DHT22;29973;43.742;1.236;2022-12-18T13:48:21;16.60;98.30
44277;DHT22;29973;43.742;1.236;2022-12-18T13:50:52;16.20;99.40
44277;DHT22;29973;43.742;1.236;2022-12-18T13:53:21;16.50;98.70
44277;DHT22;29973;43.742;1.236;2022-12-18T13:55:49;16.50;99.30
44277;DHT22;29973;43.742;1.236;2022-12-18T13:58:14;15.80;99.90
44277;DHT22;29973;43.742;1.236;2022-12-18T14:00:43;16.70;98.90
44277;DHT22;29973;43.742;1.236;2022-12-18T14:03:19;16.30;99.30
44277;DHT22;29973;43.742;1.236;2022-12-18T14:05:45;16.10;99.10
44277;DHT22;29973;43.742;1.236;2022-12-18T14:08:17;16.10;98.70
44277;DHT22;29973;43.742;1.236;2022-12-18T14:10:44;16.30;98.30
44277;DHT22;29973;43.742;1.236;2022-12-18T14:13:10;16.90;98.40
44277;DHT22;29973;43.742;1.236;2022-12-18T14:15:39;16.10;98.60
44277;DHT22;29973;43.742;1.236;2022-12-18T14:20:33;15.70;99.90
44277;DHT22;29973;43.742;1.236;2022-12-18T14:22:59;15.60;99.70
44277;DHT22;29973;43.742;1.236;2022-12-18T14:25:29;15.80;99.90
44277;DHT22;29973;43.742;1.236;2022-12-18T14:30:35;15.90;99.10
44277;DHT22;29973;43.742;1.236;2022-12-18T14:35:27;16.00;99.90
44277;DHT22;29973;43.742;1.236;2022-12-18T14:37:52;16.40;99.10
44277;DHT22;29973;43.742;1.236;2022-12-18T14:40:18;16.00;99.90
44277;DHT22;29973;43.742;1.236;2022-12-18T14:42:43;15.40;99.90
44277;DHT22;29973;43.742;1.236;2022-12-18T14:47:53;15.80;99.90
44277;DHT22;29973;43.742;1.236;2022-12-18T14:50:19;15.10;99.90
44277;DHT22;29973;43.742;1.236;2022-12-18T14:52:44;15.30;99.90
44277;DHT22;29973;43.742;1.236;2022-12-18T14:55:16;15.20;99.90
44277;DHT22;29973;43.742;1.236;2022-12-18T14:57:42;15.10;99.90
44277;DHT22;29973;43.742;1.236;2022-12-18T15:00:17;16.10;99.90
44277;DHT22;29973;43.742;1.236;2022-12-18T15:02:44;15.90;99.90
44277;DHT22;29973;43.742;1.236;2022-12-18T15:07:40;14.90;99.90
44277;DHT22;29973;43.742;1.236;2022-12-18T15:10:13;13.70;99.90
44277;DHT22;29973;43.742;1.236;2022-12-18T15:12:41;12.90;99.90
44277;DHT22;29973;43.742;1.236;2022-12-18T15:18:00;11.80;99.90
44277;DHT22;29973;43.742;1.236;2022-12-18T15:20:27;11.70;99.90
44277;DHT22;29973;43.742;1.236;2022-12-18T15:22:52;11.70;99.90
44277;DHT22;29973;43.742;1.236;2022-12-18T15:28:23;11.30;99.90
44277;DHT22;29973;43.742;1.236;2022-12-18T15:31:03;11.10;99.90
44277;DHT22;29973;43.742;1.236;2022-12-18T15:33:30;11.00;99.90
44277;DHT22;29973;43.742;1.236;2022-12-18T15:36:08;10.90;99.90
44277;DHT22;29973;43.742;1.236;2022-12-18T15:38:34;10.70;99.90
44277;DHT22;29973;43.742;1.236;2022-12-18T15:41:00;10.60;99.90
44277;DHT22;29973;43.742;1.236;2022-12-18T15:43:26;10.60;99.90
44277;DHT22;29973;43.742;1.236;2022-12-18T15:48:27;10.50;99.90
44277;DHT22;29973;43.742;1.236;2022-12-18T15:50:53;10.50;99.90
44277;DHT22;29973;43.742;1.236;2022-12-18T15:53:22;10.40;99.90
44277;DHT22;29973;43.742;1.236;2022-12-18T15:55:48;10.30;99.90
44277;DHT22;29973;43.742;1.236;2022-12-18T15:58:31;10.20;99.90
44277;DHT22;29973;43.742;1.236;2022-12-18T16:00:58;10.10;99.90
44277;DHT22;29973;43.742;1.236;2022-12-18T16:03:24;10.10;99.90
44277;DHT22;29973;43.742;1.236;2022-12-18T16:05:49;10.00;99.90
44277;DHT22;29973;43.742;1.236;2022-12-18T16:08:15;10.00;99.90
44277;DHT22;29973;43.742;1.236;2022-12-18T16:10:40;9.80;99.90
44277;DHT22;29973;43.742;1.236;2022-12-18T16:13:09;9.80;99.90
44277;DHT22;29973;43.742;1.236;2022-12-18T16:15:35;9.70;99.90
44277;DHT22;29973;43.742;1.236;2022-12-18T16:18:00;9.70;99.90
44277;DHT22;29973;43.742;1.236;2022-12-18T16:20:26;9.70;99.90
44277;DHT22;29973;43.742;1.236;2022-12-18T16:22:52;9.60;99.90
44277;DHT22;29973;43.742;1.236;2022-12-18T16:25:25;9.50;99.90
44277;DHT22;29973;43.742;1.236;2022-12-18T16:27:51;9.40;99.90
44277;DHT22;29973;43.742;1.236;2022-12-18T16:30:21;9.70;99.90
44277;DHT22;29973;43.742;1.236;2022-12-18T16:32:47;9.70;99.90
44277;DHT22;29973;43.742;1.236;2022-12-18T16:35:13;9.50;99.90
44277;DHT22;29973;43.742;1.236;2022-12-18T16:37:39;9.60;99.90
44277;DHT22;29973;43.742;1.236;2022-12-18T16:40:06;9.50;99.90
44277;DHT22;29973;43.742;1.236;2022-12-18T16:42:34;9.20;99.90
44277;DHT22;29973;43.742;1.236;2022-12-18T16:45:00;9.20;99.90
44277;DHT22;29973;43.742;1.236;2022-12-18T16:47:25;9.30;99.90
44277;DHT22;29973;43.742;1.236;2022-12-18T16:49:51;9.20;99.90
44277;DHT22;29973;43.742;1.236;2022-12-18T16:52:19;9.30;99.90
44277;DHT22;29973;43.742;1.236;2022-12-18T16:54:44;9.20;99.90
44277;DHT22;29973;43.742;1.236;2022-12-18T16:57:12;9.20;99.90
44277;DHT22;29973;43.742;1.236;2022-12-18T16:59:37;9.20;99.90
44277;DHT22;29973;43.742;1.236;2022-12-18T17:02:03;9.10;99.90
44277;DHT22;29973;43.742;1.236;2022-12-18T17:04:28;9.00;99.90
44277;DHT22;29973;43.742;1.236;2022-12-18T17:06:54;9.30;99.90
44277;DHT22;29973;43.742;1.236;2022-12-18T17:09:20;9.20;99.90
44277;DHT22;29973;43.742;1.236;2022-12-18T17:11:52;9.10;99.90
44277;DHT22;29973;43.742;1.236;2022-12-18T17:14:21;9.00;99.90
44277;DHT22;29973;43.742;1.236;2022-12-18T17:16:47;9.30;99.90
44277;DHT22;29973;43.742;1.236;2022-12-18T17:19:13;9.20;99.90
44277;DHT22;29973;43.742;1.236;2022-12-18T17:21:38;9.20;99.90
44277;DHT22;29973;43.742;1.236;2022-12-18T17:24:04;9.10;99.90
44277;DHT22;29973;43.742;1.236;2022-12-18T17:26:30;9.10;99.90
44277;DHT22;29973;43.742;1.236;2022-12-18T17:28:56;9.30;99.90
44277;DHT22;29973;43.742;1.236;2022-12-18T17:31:23;9.30;99.90
44277;DHT22;29973;43.742;1.236;2022-12-18T17:33:49;9.30;99.90
44277;DHT22;29973;43.742;1.236;2022-12-18T17:36:15;9.30;99.90
44277;DHT22;29973;43.742;1.236;2022-12-18T17:38:41;9.50;99.90
44277;DHT22;29973;43.742;1.236;2022-12-18T17:41:07;9.60;99.90